createdAt,value
2019-03-16T00:00:16.630Z,994.93
2019-03-16T00:00:57.198Z,994.96
2019-03-16T00:01:37.756Z,994.87
2019-03-16T00:02:18.330Z,994.86
2019-03-16T00:02:58.927Z,994.99
2019-03-16T00:03:39.499Z,995
2019-03-16T00:04:20.073Z,994.93
2019-03-16T00:05:00.642Z,995.12
2019-03-16T00:05:41.226Z,995.1
2019-03-16T00:06:21.802Z,995.05
2019-03-16T00:07:02.381Z,995.08
2019-03-16T00:07:42.976Z,995.03
2019-03-16T00:08:23.543Z,995.12
2019-03-16T00:09:04.099Z,995.14
2019-03-16T00:09:44.656Z,995.11
2019-03-16T00:10:25.211Z,995.23
2019-03-16T00:11:05.771Z,995.19
2019-03-16T00:11:46.400Z,995.19
2019-03-16T00:12:26.912Z,995.22
2019-03-16T00:13:07.458Z,995.22
2019-03-16T00:13:48.008Z,995.13
2019-03-16T00:14:28.556Z,995.31
2019-03-16T00:15:09.117Z,995.13
2019-03-16T00:15:49.689Z,995.23
2019-03-16T00:16:30.261Z,995.31
2019-03-16T00:17:10.814Z,995.22
2019-03-16T00:17:51.398Z,995.24
2019-03-16T00:18:31.949Z,995.23
2019-03-16T00:19:12.518Z,995.23
2019-03-16T00:19:53.085Z,995.28
2019-03-16T00:20:33.758Z,995.3
2019-03-16T00:21:14.224Z,995.23
2019-03-16T00:21:54.801Z,995.17
2019-03-16T00:22:35.369Z,995.27
2019-03-16T00:23:15.930Z,995.37
2019-03-16T00:23:56.499Z,995.25
2019-03-16T00:24:37.067Z,995.35
2019-03-16T00:25:17.652Z,995.25
2019-03-16T00:25:58.204Z,995.31
2019-03-16T00:26:38.769Z,995.4
2019-03-16T00:27:19.329Z,995.4
2019-03-16T00:27:59.895Z,995.37
2019-03-16T00:28:40.466Z,995.43
2019-03-16T00:29:21.015Z,995.48
2019-03-16T00:30:01.562Z,995.35
2019-03-16T00:30:42.118Z,995.3
2019-03-16T00:31:22.685Z,995.37
2019-03-16T00:32:12.756Z,995.41
2019-03-16T00:32:43.841Z,995.42
2019-03-16T00:33:24.394Z,995.49
2019-03-16T00:34:04.968Z,995.44
2019-03-16T00:34:45.528Z,995.42
2019-03-16T00:35:26.130Z,995.53
2019-03-16T00:36:06.706Z,995.58
2019-03-16T00:36:47.262Z,995.58
2019-03-16T00:37:27.836Z,995.61
2019-03-16T00:38:08.397Z,995.55
2019-03-16T00:38:48.966Z,995.62
2019-03-16T00:39:29.550Z,995.62
2019-03-16T00:40:10.835Z,995.7
2019-03-16T00:40:51.475Z,995.63
2019-03-16T00:41:32.048Z,995.71
2019-03-16T00:42:12.605Z,995.73
2019-03-16T00:42:53.177Z,995.71
2019-03-16T00:43:33.737Z,995.7
2019-03-16T00:44:14.313Z,995.6
2019-03-16T00:44:54.867Z,995.67
2019-03-16T00:45:35.434Z,995.75
2019-03-16T00:46:15.992Z,995.76
2019-03-16T00:46:56.551Z,995.73
2019-03-16T00:47:37.106Z,995.69
2019-03-16T00:48:17.656Z,995.75
2019-03-16T00:48:58.217Z,995.65
2019-03-16T00:49:38.767Z,995.66
2019-03-16T00:50:19.319Z,995.72
2019-03-16T00:50:59.878Z,995.74
2019-03-16T00:51:40.450Z,995.82
2019-03-16T00:52:21.027Z,995.74
2019-03-16T00:53:01.591Z,995.69
2019-03-16T00:53:42.153Z,995.68
2019-03-16T00:54:22.721Z,995.71
2019-03-16T00:55:03.272Z,995.73
2019-03-16T00:55:43.854Z,995.81
2019-03-16T00:56:24.434Z,995.83
2019-03-16T00:57:04.985Z,995.85
2019-03-16T00:57:45.581Z,995.9
2019-03-16T00:58:26.139Z,995.79
2019-03-16T00:59:06.717Z,995.94
2019-03-16T00:59:47.253Z,995.86
2019-03-16T01:00:27.810Z,995.77
2019-03-16T01:01:08.387Z,995.88
2019-03-16T01:01:48.974Z,995.82
2019-03-16T01:02:32.657Z,995.78
2019-03-16T01:03:10.115Z,995.74
2019-03-16T01:03:50.665Z,995.93
2019-03-16T01:04:31.220Z,995.88
2019-03-16T01:05:11.825Z,995.87
2019-03-16T01:05:52.372Z,995.93
2019-03-16T01:06:32.917Z,995.89
2019-03-16T01:07:13.467Z,995.87
2019-03-16T01:07:54.038Z,995.89
2019-03-16T01:08:34.581Z,995.92
2019-03-16T01:09:15.139Z,995.96
2019-03-16T01:09:55.707Z,995.92
2019-03-16T01:10:36.274Z,996.05
2019-03-16T01:11:16.826Z,995.93
2019-03-16T01:11:57.390Z,995.9
2019-03-16T01:12:37.955Z,996.02
2019-03-16T01:13:18.512Z,996.07
2019-03-16T01:13:59.085Z,995.98
2019-03-16T01:14:39.648Z,995.96
2019-03-16T01:15:20.211Z,996.04
2019-03-16T01:16:00.777Z,996.07
2019-03-16T01:16:41.347Z,996.09
2019-03-16T01:17:21.911Z,996.13
2019-03-16T01:18:02.470Z,996.13
2019-03-16T01:18:43.041Z,996.09
2019-03-16T01:19:23.598Z,996.12
2019-03-16T01:20:04.161Z,996.11
2019-03-16T01:20:44.728Z,996.16
2019-03-16T01:21:25.307Z,996.2
2019-03-16T01:22:05.874Z,996.23
2019-03-16T01:22:46.447Z,996.19
2019-03-16T01:23:26.989Z,996.22
2019-03-16T01:24:07.547Z,996.22
2019-03-16T01:24:48.127Z,996.2
2019-03-16T01:25:28.686Z,996.11
2019-03-16T01:26:09.246Z,996.24
2019-03-16T01:26:49.796Z,996.3
2019-03-16T01:27:30.369Z,996.27
2019-03-16T01:28:10.944Z,996.26
2019-03-16T01:28:51.499Z,996.22
2019-03-16T01:29:32.087Z,996.25
2019-03-16T01:30:12.653Z,996.18
2019-03-16T01:30:53.208Z,996.3
2019-03-16T01:31:33.781Z,996.31
2019-03-16T01:32:14.330Z,996.21
2019-03-16T01:32:54.908Z,996.26
2019-03-16T01:33:35.474Z,996.26
2019-03-16T01:34:16.038Z,996.4
2019-03-16T01:34:56.605Z,996.39
2019-03-16T01:35:37.186Z,996.31
2019-03-16T01:36:17.733Z,996.33
2019-03-16T01:36:58.290Z,996.28
2019-03-16T01:37:38.851Z,996.35
2019-03-16T01:38:19.402Z,996.32
2019-03-16T01:38:59.963Z,996.37
2019-03-16T01:39:40.515Z,996.33
2019-03-16T01:40:21.086Z,996.43
2019-03-16T01:41:01.651Z,996.37
2019-03-16T01:41:42.217Z,996.43
2019-03-16T01:42:22.771Z,996.45
2019-03-16T01:43:03.319Z,996.57
2019-03-16T01:43:43.877Z,996.5
2019-03-16T01:44:24.437Z,996.51
2019-03-16T01:45:04.996Z,996.43
2019-03-16T01:45:45.557Z,996.46
2019-03-16T01:46:26.122Z,996.56
2019-03-16T01:47:06.682Z,996.52
2019-03-16T01:47:47.248Z,996.49
2019-03-16T01:48:27.805Z,996.56
2019-03-16T01:49:08.374Z,996.47
2019-03-16T01:49:48.941Z,996.47
2019-03-16T01:50:29.536Z,996.55
2019-03-16T01:51:10.115Z,996.57
2019-03-16T01:51:50.657Z,996.48
2019-03-16T01:52:31.302Z,996.53
2019-03-16T01:53:11.787Z,996.51
2019-03-16T01:53:52.345Z,996.47
2019-03-16T01:54:32.893Z,996.48
2019-03-16T01:55:13.470Z,996.48
2019-03-16T01:55:54.041Z,996.36
2019-03-16T01:56:34.621Z,996.43
2019-03-16T01:57:15.172Z,996.41
2019-03-16T01:57:55.745Z,996.46
2019-03-16T01:58:36.316Z,996.55
2019-03-16T01:59:16.875Z,996.48
2019-03-16T01:59:57.437Z,996.54
2019-03-16T02:00:38.001Z,996.52
2019-03-16T02:01:18.560Z,996.55
2019-03-16T02:01:59.166Z,996.51
2019-03-16T02:02:53.669Z,996.46
2019-03-16T02:03:20.302Z,996.52
2019-03-16T02:04:00.869Z,996.53
2019-03-16T02:04:41.427Z,996.48
2019-03-16T02:05:21.979Z,996.53
2019-03-16T02:06:02.556Z,996.48
2019-03-16T02:06:43.118Z,996.48
2019-03-16T02:07:23.695Z,996.48
2019-03-16T02:08:04.248Z,996.43
2019-03-16T02:08:44.814Z,996.53
2019-03-16T02:09:25.365Z,996.5
2019-03-16T02:10:05.948Z,996.54
2019-03-16T02:10:46.511Z,996.52
2019-03-16T02:11:27.071Z,996.54
2019-03-16T02:12:07.627Z,996.51
2019-03-16T02:12:48.196Z,996.61
2019-03-16T02:13:28.763Z,996.6
2019-03-16T02:14:09.320Z,996.61
2019-03-16T02:14:49.885Z,996.61
2019-03-16T02:15:30.465Z,996.51
2019-03-16T02:16:11.629Z,996.56
2019-03-16T02:16:51.563Z,996.53
2019-03-16T02:17:32.110Z,996.53
2019-03-16T02:18:12.692Z,996.53
2019-03-16T02:18:53.241Z,996.58
2019-03-16T02:19:35.891Z,996.55
2019-03-16T02:20:14.377Z,996.61
2019-03-16T02:20:54.933Z,996.64
2019-03-16T02:21:35.521Z,996.68
2019-03-16T02:22:16.056Z,996.61
2019-03-16T02:22:56.609Z,996.67
2019-03-16T02:23:37.160Z,996.71
2019-03-16T02:24:17.713Z,996.72
2019-03-16T02:24:58.274Z,996.65
2019-03-16T02:25:38.861Z,996.82
2019-03-16T02:26:19.422Z,996.73
2019-03-16T02:26:59.989Z,996.68
2019-03-16T02:27:40.545Z,996.78
2019-03-16T02:28:21.109Z,996.79
2019-03-16T02:29:01.668Z,996.84
2019-03-16T02:29:42.226Z,996.86
2019-03-16T02:30:22.800Z,996.82
2019-03-16T02:31:03.374Z,996.79
2019-03-16T02:31:43.943Z,996.78
2019-03-16T02:32:24.509Z,996.86
2019-03-16T02:33:12.164Z,996.91
2019-03-16T02:33:45.700Z,996.82
2019-03-16T02:34:26.192Z,996.83
2019-03-16T02:35:06.748Z,996.9
2019-03-16T02:35:47.311Z,997
2019-03-16T02:36:27.868Z,996.95
2019-03-16T02:37:08.435Z,996.98
2019-03-16T02:37:48.988Z,996.99
2019-03-16T02:38:29.558Z,996.85
2019-03-16T02:39:10.123Z,997.04
2019-03-16T02:39:51.166Z,997.09
2019-03-16T02:40:31.732Z,997.07
2019-03-16T02:41:12.294Z,997.09
2019-03-16T02:41:52.848Z,997.06
2019-03-16T02:42:33.414Z,996.99
2019-03-16T02:43:13.973Z,997.06
2019-03-16T02:43:54.535Z,997.08
2019-03-16T02:44:35.096Z,997.12
2019-03-16T02:45:15.661Z,997.08
2019-03-16T02:45:56.223Z,997.08
2019-03-16T02:46:36.775Z,997.2
2019-03-16T02:47:17.328Z,997.16
2019-03-16T02:47:57.895Z,997.15
2019-03-16T02:48:38.459Z,997.22
2019-03-16T02:49:19.029Z,997.21
2019-03-16T02:49:59.600Z,997.23
2019-03-16T02:50:40.157Z,997.25
2019-03-16T02:51:20.724Z,997.21
2019-03-16T02:52:01.288Z,997.28
2019-03-16T02:52:41.867Z,997.23
2019-03-16T02:53:22.401Z,997.3
2019-03-16T02:54:02.954Z,997.36
2019-03-16T02:54:43.554Z,997.29
2019-03-16T02:55:24.108Z,997.33
2019-03-16T02:56:04.671Z,997.34
2019-03-16T02:56:45.231Z,997.46
2019-03-16T02:57:25.823Z,997.4
2019-03-16T02:58:06.395Z,997.35
2019-03-16T02:58:46.963Z,997.43
2019-03-16T02:59:27.552Z,997.5
2019-03-16T03:00:08.136Z,997.42
2019-03-16T03:00:48.686Z,997.49
2019-03-16T03:01:29.252Z,997.34
2019-03-16T03:02:09.810Z,997.45
2019-03-16T03:02:50.403Z,997.5
2019-03-16T03:03:30.950Z,997.39
2019-03-16T03:04:11.516Z,997.45
2019-03-16T03:04:52.091Z,997.52
2019-03-16T03:05:32.644Z,997.47
2019-03-16T03:06:13.203Z,997.44
2019-03-16T03:06:53.792Z,997.5
2019-03-16T03:07:34.360Z,997.5
2019-03-16T03:08:14.911Z,997.51
2019-03-16T03:08:55.459Z,997.55
2019-03-16T03:09:36.025Z,997.57
2019-03-16T03:10:16.590Z,997.55
2019-03-16T03:10:57.151Z,997.59
2019-03-16T03:11:37.727Z,997.51
2019-03-16T03:12:18.280Z,997.45
2019-03-16T03:12:58.846Z,997.5
2019-03-16T03:13:39.413Z,997.51
2019-03-16T03:14:19.975Z,997.48
2019-03-16T03:15:00.730Z,997.53
2019-03-16T03:15:41.093Z,997.51
2019-03-16T03:16:21.662Z,997.45
2019-03-16T03:17:02.275Z,997.53
2019-03-16T03:17:42.767Z,997.54
2019-03-16T03:18:23.352Z,997.58
2019-03-16T03:19:03.913Z,997.51
2019-03-16T03:19:44.478Z,997.63
2019-03-16T03:20:25.047Z,997.59
2019-03-16T03:21:05.602Z,997.67
2019-03-16T03:21:46.158Z,997.58
2019-03-16T03:22:26.735Z,997.58
2019-03-16T03:23:07.289Z,997.64
2019-03-16T03:23:47.833Z,997.68
2019-03-16T03:24:28.401Z,997.66
2019-03-16T03:25:08.967Z,997.67
2019-03-16T03:25:49.527Z,997.7
2019-03-16T03:26:30.097Z,997.67
2019-03-16T03:27:10.657Z,997.67
2019-03-16T03:27:51.217Z,997.62
2019-03-16T03:28:31.786Z,997.68
2019-03-16T03:29:12.330Z,997.75
2019-03-16T03:29:56.993Z,997.69
2019-03-16T03:30:33.469Z,997.74
2019-03-16T03:31:14.014Z,997.82
2019-03-16T03:31:54.553Z,997.77
2019-03-16T03:32:35.121Z,997.88
2019-03-16T03:33:15.687Z,997.83
2019-03-16T03:34:00.689Z,997.82
2019-03-16T03:34:36.808Z,997.8
2019-03-16T03:35:17.371Z,997.73
2019-03-16T03:35:57.933Z,997.8
2019-03-16T03:36:38.499Z,997.79
2019-03-16T03:37:19.057Z,997.85
2019-03-16T03:37:59.652Z,997.84
2019-03-16T03:38:40.199Z,997.9
2019-03-16T03:39:20.765Z,997.85
2019-03-16T03:40:01.337Z,997.87
2019-03-16T03:40:41.901Z,997.89
2019-03-16T03:41:22.462Z,997.95
2019-03-16T03:42:03.019Z,997.9
2019-03-16T03:42:43.592Z,997.86
2019-03-16T03:43:24.156Z,997.88
2019-03-16T03:44:04.717Z,997.97
2019-03-16T03:44:45.286Z,998.01
2019-03-16T03:45:25.878Z,997.97
2019-03-16T03:46:06.418Z,997.97
2019-03-16T03:46:46.979Z,997.91
2019-03-16T03:47:27.538Z,998.07
2019-03-16T03:48:08.084Z,998.03
2019-03-16T03:48:48.638Z,998.01
2019-03-16T03:49:29.370Z,998.05
2019-03-16T03:50:09.774Z,998
2019-03-16T03:50:50.340Z,998.01
2019-03-16T03:51:30.902Z,998.04
2019-03-16T03:52:11.558Z,998.1
2019-03-16T03:52:52.028Z,998.09
2019-03-16T03:53:32.581Z,998.12
2019-03-16T03:54:13.148Z,998.13
2019-03-16T03:54:53.710Z,998.1
2019-03-16T03:55:34.267Z,998.22
2019-03-16T03:56:14.834Z,998.2
2019-03-16T03:56:55.396Z,998.13
2019-03-16T03:57:35.948Z,998.13
2019-03-16T03:58:16.513Z,998.16
2019-03-16T03:58:57.069Z,998.14
2019-03-16T03:59:37.649Z,998.12
2019-03-16T04:00:18.197Z,998.08
2019-03-16T04:00:58.762Z,998.21
2019-03-16T04:01:39.336Z,998.08
2019-03-16T04:02:19.899Z,998.12
2019-03-16T04:03:00.456Z,998.14
2019-03-16T04:03:41.015Z,998.13
2019-03-16T04:04:21.573Z,998.15
2019-03-16T04:05:02.126Z,998.22
2019-03-16T04:05:42.686Z,998.21
2019-03-16T04:06:23.250Z,998.32
2019-03-16T04:07:03.813Z,998.26
2019-03-16T04:07:44.365Z,998.32
2019-03-16T04:08:24.938Z,998.29
2019-03-16T04:09:05.490Z,998.31
2019-03-16T04:09:46.048Z,998.35
2019-03-16T04:10:26.596Z,998.31
2019-03-16T04:11:07.153Z,998.31
2019-03-16T04:11:47.721Z,998.33
2019-03-16T04:12:28.282Z,998.28
2019-03-16T04:13:08.839Z,998.32
2019-03-16T04:13:49.492Z,998.32
2019-03-16T04:14:29.981Z,998.28
2019-03-16T04:15:10.561Z,998.33
2019-03-16T04:15:51.113Z,998.36
2019-03-16T04:16:31.662Z,998.36
2019-03-16T04:17:12.218Z,998.41
2019-03-16T04:17:52.783Z,998.37
2019-03-16T04:18:33.339Z,998.33
2019-03-16T04:19:13.968Z,998.44
2019-03-16T04:19:54.538Z,998.51
2019-03-16T04:20:35.103Z,998.48
2019-03-16T04:21:15.676Z,998.44
2019-03-16T04:21:56.234Z,998.48
2019-03-16T04:22:36.832Z,998.56
2019-03-16T04:23:17.378Z,998.5
2019-03-16T04:23:57.914Z,998.55
2019-03-16T04:24:38.460Z,998.57
2019-03-16T04:25:19.021Z,998.59
2019-03-16T04:25:59.580Z,998.55
2019-03-16T04:26:40.128Z,998.62
2019-03-16T04:27:20.700Z,998.61
2019-03-16T04:28:01.261Z,998.67
2019-03-16T04:28:41.812Z,998.56
2019-03-16T04:29:22.379Z,998.61
2019-03-16T04:30:02.937Z,998.64
2019-03-16T04:30:43.509Z,998.68
2019-03-16T04:31:24.068Z,998.68
2019-03-16T04:32:04.627Z,998.77
2019-03-16T04:32:45.186Z,998.69
2019-03-16T04:33:25.742Z,998.7
2019-03-16T04:34:06.299Z,998.73
2019-03-16T04:34:46.859Z,998.77
2019-03-16T04:35:27.412Z,998.78
2019-03-16T04:36:07.964Z,998.76
2019-03-16T04:36:48.511Z,998.77
2019-03-16T04:37:29.065Z,998.76
2019-03-16T04:38:09.639Z,998.8
2019-03-16T04:38:50.212Z,998.76
2019-03-16T04:39:30.770Z,998.83
2019-03-16T04:40:12.168Z,998.8
2019-03-16T04:40:52.720Z,998.8
2019-03-16T04:41:33.298Z,998.72
2019-03-16T04:42:13.837Z,998.73
2019-03-16T04:42:54.417Z,998.81
2019-03-16T04:43:34.964Z,998.79
2019-03-16T04:44:15.531Z,998.8
2019-03-16T04:44:56.085Z,998.77
2019-03-16T04:45:36.644Z,998.77
2019-03-16T04:46:17.217Z,998.84
2019-03-16T04:46:57.770Z,998.79
2019-03-16T04:47:38.332Z,998.84
2019-03-16T04:48:18.909Z,998.76
2019-03-16T04:48:59.455Z,998.89
2019-03-16T04:49:40.012Z,998.85
2019-03-16T04:50:20.581Z,998.82
2019-03-16T04:51:01.146Z,998.82
2019-03-16T04:51:41.714Z,998.81
2019-03-16T04:52:22.285Z,998.86
2019-03-16T04:53:02.854Z,998.89
2019-03-16T04:53:43.417Z,998.85
2019-03-16T04:54:23.984Z,998.97
2019-03-16T04:55:04.607Z,998.94
2019-03-16T04:55:45.170Z,999.01
2019-03-16T04:56:25.727Z,998.92
2019-03-16T04:57:06.292Z,998.94
2019-03-16T04:57:46.855Z,998.95
2019-03-16T04:58:27.418Z,998.97
2019-03-16T04:59:07.984Z,999.03
2019-03-16T04:59:48.549Z,999.03
2019-03-16T05:00:29.101Z,999.02
2019-03-16T05:01:09.669Z,998.94
2019-03-16T05:01:50.226Z,998.99
2019-03-16T05:02:30.808Z,999.05
2019-03-16T05:03:11.368Z,998.99
2019-03-16T05:03:51.930Z,999.08
2019-03-16T05:04:41.813Z,999.04
2019-03-16T05:05:13.057Z,999.04
2019-03-16T05:05:53.611Z,999.06
2019-03-16T05:06:34.173Z,999.07
2019-03-16T05:07:14.744Z,999.08
2019-03-16T05:07:55.315Z,999.08
2019-03-16T05:08:35.878Z,999.03
2019-03-16T05:09:16.442Z,999.04
2019-03-16T05:09:57.012Z,999.05
2019-03-16T05:10:37.563Z,999.05
2019-03-16T05:11:18.126Z,999.08
2019-03-16T05:11:58.697Z,999.09
2019-03-16T05:12:39.260Z,999.06
2019-03-16T05:13:19.815Z,999.06
2019-03-16T05:14:00.392Z,999.02
2019-03-16T05:14:40.949Z,999.08
2019-03-16T05:15:21.504Z,999.08
2019-03-16T05:16:02.051Z,999.14
2019-03-16T05:16:42.604Z,999.2
2019-03-16T05:17:23.178Z,999.12
2019-03-16T05:18:03.742Z,999.15
2019-03-16T05:18:44.302Z,999.2
2019-03-16T05:19:24.856Z,999.23
2019-03-16T05:20:05.438Z,999.16
2019-03-16T05:20:45.994Z,999.16
2019-03-16T05:21:26.551Z,999.15
2019-03-16T05:22:07.096Z,999.12
2019-03-16T05:22:47.666Z,999.14
2019-03-16T05:23:28.212Z,999.22
2019-03-16T05:24:08.809Z,999.22
2019-03-16T05:24:49.374Z,999.23
2019-03-16T05:25:29.944Z,999.28
2019-03-16T05:26:10.500Z,999.24
2019-03-16T05:26:51.062Z,999.3
2019-03-16T05:27:31.612Z,999.31
2019-03-16T05:28:12.184Z,999.29
2019-03-16T05:28:52.737Z,999.29
2019-03-16T05:29:33.289Z,999.36
2019-03-16T05:30:13.874Z,999.34
2019-03-16T05:30:54.435Z,999.35
2019-03-16T05:31:35.014Z,999.35
2019-03-16T05:32:15.554Z,999.35
2019-03-16T05:32:56.122Z,999.33
2019-03-16T05:33:36.670Z,999.41
2019-03-16T05:34:17.246Z,999.35
2019-03-16T05:34:57.798Z,999.35
2019-03-16T05:35:38.360Z,999.42
2019-03-16T05:36:18.925Z,999.44
2019-03-16T05:36:59.520Z,999.36
2019-03-16T05:37:40.067Z,999.43
2019-03-16T05:38:20.659Z,999.4
2019-03-16T05:39:01.235Z,999.36
2019-03-16T05:39:42.276Z,999.41
2019-03-16T05:40:22.831Z,999.41
2019-03-16T05:41:03.381Z,999.42
2019-03-16T05:41:43.979Z,999.45
2019-03-16T05:42:24.536Z,999.47
2019-03-16T05:43:05.101Z,999.37
2019-03-16T05:43:45.663Z,999.46
2019-03-16T05:44:26.218Z,999.51
2019-03-16T05:45:06.776Z,999.57
2019-03-16T05:45:47.348Z,999.62
2019-03-16T05:46:27.934Z,999.57
2019-03-16T05:47:08.497Z,999.66
2019-03-16T05:47:49.097Z,999.61
2019-03-16T05:48:29.645Z,999.62
2019-03-16T05:49:10.244Z,999.66
2019-03-16T05:49:50.827Z,999.7
2019-03-16T05:50:31.371Z,999.69
2019-03-16T05:51:11.926Z,999.74
2019-03-16T05:51:52.547Z,999.75
2019-03-16T05:52:33.104Z,999.71
2019-03-16T05:53:13.683Z,999.77
2019-03-16T05:53:54.245Z,999.7
2019-03-16T05:54:34.816Z,999.76
2019-03-16T05:55:15.362Z,999.77
2019-03-16T05:55:55.922Z,999.78
2019-03-16T05:56:36.495Z,999.79
2019-03-16T05:57:17.050Z,999.81
2019-03-16T05:57:57.672Z,999.83
2019-03-16T05:58:38.234Z,999.81
2019-03-16T05:59:18.801Z,999.82
2019-03-16T05:59:59.360Z,999.8
2019-03-16T06:00:39.956Z,999.86
2019-03-16T06:01:20.526Z,999.9
2019-03-16T06:02:01.087Z,999.87
2019-03-16T06:02:41.644Z,999.95
2019-03-16T06:03:22.210Z,999.92
2019-03-16T06:04:02.792Z,999.98
2019-03-16T06:04:43.355Z,1000.01
2019-03-16T06:05:23.906Z,999.94
2019-03-16T06:06:04.489Z,1000.01
2019-03-16T06:06:45.069Z,1000.07
2019-03-16T06:07:25.642Z,1000.06
2019-03-16T06:08:06.214Z,1000.09
2019-03-16T06:08:46.785Z,1000.09
2019-03-16T06:09:27.341Z,1000.11
2019-03-16T06:10:07.922Z,1000.07
2019-03-16T06:10:48.488Z,1000.04
2019-03-16T06:11:29.049Z,1000.09
2019-03-16T06:12:09.617Z,1000.13
2019-03-16T06:12:50.537Z,1000.11
2019-03-16T06:13:31.126Z,1000.06
2019-03-16T06:14:11.685Z,1000.19
2019-03-16T06:14:52.259Z,1000.18
2019-03-16T06:15:32.837Z,1000.15
2019-03-16T06:16:13.395Z,1000.13
2019-03-16T06:16:53.945Z,1000.19
2019-03-16T06:17:34.504Z,1000.17
2019-03-16T06:18:15.108Z,1000.19
2019-03-16T06:18:55.623Z,1000.23
2019-03-16T06:19:36.182Z,1000.18
2019-03-16T06:20:16.735Z,1000.23
2019-03-16T06:20:57.300Z,1000.2
2019-03-16T06:21:37.846Z,1000.23
2019-03-16T06:22:18.499Z,1000.19
2019-03-16T06:22:59.022Z,1000.22
2019-03-16T06:23:39.574Z,1000.21
2019-03-16T06:24:20.152Z,1000.27
2019-03-16T06:25:00.722Z,1000.23
2019-03-16T06:25:41.284Z,1000.26
2019-03-16T06:26:21.837Z,1000.24
2019-03-16T06:27:02.407Z,1000.2
2019-03-16T06:27:42.979Z,1000.27
2019-03-16T06:28:23.544Z,1000.27
2019-03-16T06:29:04.105Z,1000.29
2019-03-16T06:29:44.682Z,1000.29
2019-03-16T06:30:25.263Z,1000.34
2019-03-16T06:31:05.834Z,1000.32
2019-03-16T06:31:46.386Z,1000.33
2019-03-16T06:32:26.939Z,1000.36
2019-03-16T06:33:07.507Z,1000.33
2019-03-16T06:33:48.070Z,1000.36
2019-03-16T06:34:28.665Z,1000.38
2019-03-16T06:35:09.199Z,1000.34
2019-03-16T06:35:49.894Z,1000.35
2019-03-16T06:36:30.469Z,1000.38
2019-03-16T06:37:11.033Z,1000.39
2019-03-16T06:37:51.569Z,1000.39
2019-03-16T06:38:32.126Z,1000.45
2019-03-16T06:39:12.672Z,1000.41
2019-03-16T06:39:53.233Z,1000.4
2019-03-16T06:40:33.798Z,1000.44
2019-03-16T06:41:14.362Z,1000.48
2019-03-16T06:41:55.024Z,1000.41
2019-03-16T06:42:35.590Z,1000.53
2019-03-16T06:43:16.212Z,1000.51
2019-03-16T06:43:56.732Z,1000.43
2019-03-16T06:44:37.292Z,1000.51
2019-03-16T06:45:17.860Z,1000.48
2019-03-16T06:45:58.437Z,1000.43
2019-03-16T06:46:39.002Z,1000.47
2019-03-16T06:47:19.554Z,1000.46
2019-03-16T06:48:00.110Z,1000.54
2019-03-16T06:48:40.671Z,1000.51
2019-03-16T06:49:21.223Z,1000.5
2019-03-16T06:50:01.792Z,1000.41
2019-03-16T06:50:42.348Z,1000.56
2019-03-16T06:51:22.900Z,1000.58
2019-03-16T06:52:03.452Z,1000.52
2019-03-16T06:52:44.008Z,1000.54
2019-03-16T06:53:24.625Z,1000.52
2019-03-16T06:54:05.183Z,1000.54
2019-03-16T06:54:45.747Z,1000.57
2019-03-16T06:55:26.307Z,1000.64
2019-03-16T06:56:06.924Z,1000.58
2019-03-16T06:56:47.481Z,1000.59
2019-03-16T06:57:28.061Z,1000.68
2019-03-16T06:58:08.607Z,1000.63
2019-03-16T06:58:49.178Z,1000.65
2019-03-16T06:59:29.742Z,1000.54
2019-03-16T07:00:10.301Z,1000.51
2019-03-16T07:00:50.866Z,1000.59
2019-03-16T07:01:31.428Z,1000.62
2019-03-16T07:02:12.015Z,1000.65
2019-03-16T07:02:52.591Z,1000.67
2019-03-16T07:03:33.146Z,1000.59
2019-03-16T07:04:13.714Z,1000.61
2019-03-16T07:04:54.283Z,1000.62
2019-03-16T07:05:38.541Z,1000.67
2019-03-16T07:06:16.069Z,1000.71
2019-03-16T07:06:56.643Z,1000.71
2019-03-16T07:07:37.216Z,1000.7
2019-03-16T07:08:17.776Z,1000.69
2019-03-16T07:08:58.338Z,1000.7
2019-03-16T07:09:38.893Z,1000.64
2019-03-16T07:10:19.465Z,1000.69
2019-03-16T07:11:00.136Z,1000.67
2019-03-16T07:11:41.026Z,1000.64
2019-03-16T07:12:21.552Z,1000.74
2019-03-16T07:13:02.087Z,1000.73
2019-03-16T07:13:43.292Z,1000.71
2019-03-16T07:14:23.902Z,1000.73
2019-03-16T07:15:04.471Z,1000.73
2019-03-16T07:15:45.027Z,1000.81
2019-03-16T07:16:25.591Z,1000.85
2019-03-16T07:17:06.150Z,1000.73
2019-03-16T07:17:46.712Z,1000.79
2019-03-16T07:18:27.280Z,1000.71
2019-03-16T07:19:07.843Z,1000.7
2019-03-16T07:19:48.453Z,1000.67
2019-03-16T07:20:29.307Z,1000.79
2019-03-16T07:21:09.850Z,1000.8
2019-03-16T07:21:50.434Z,1000.83
2019-03-16T07:22:31.140Z,1000.81
2019-03-16T07:23:11.764Z,1000.85
2019-03-16T07:23:52.286Z,1000.8
2019-03-16T07:24:32.862Z,1000.85
2019-03-16T07:25:13.417Z,1000.83
2019-03-16T07:25:53.973Z,1000.79
2019-03-16T07:26:34.583Z,1000.81
2019-03-16T07:27:25.538Z,1000.81
2019-03-16T07:27:55.699Z,1000.86
2019-03-16T07:28:36.301Z,1000.88
2019-03-16T07:29:16.858Z,1000.86
2019-03-16T07:29:57.425Z,1000.84
2019-03-16T07:30:37.995Z,1000.85
2019-03-16T07:31:18.555Z,1000.89
2019-03-16T07:31:59.113Z,1000.9
2019-03-16T07:32:41.871Z,1000.88
2019-03-16T07:33:24.701Z,1000.93
2019-03-16T07:34:06.530Z,1000.91
2019-03-16T07:34:47.422Z,1000.9
2019-03-16T07:35:28.766Z,1000.91
2019-03-16T07:36:09.328Z,1000.93
2019-03-16T07:36:49.906Z,1001.11
2019-03-16T07:37:30.469Z,1001.06
2019-03-16T07:38:11.031Z,1001.02
2019-03-16T07:38:51.597Z,1001.03
2019-03-16T07:39:32.157Z,1001.11
2019-03-16T07:40:12.708Z,1001.05
2019-03-16T07:40:53.259Z,1000.99
2019-03-16T07:41:33.816Z,1001.01
2019-03-16T07:42:14.383Z,1001.07
2019-03-16T07:42:54.967Z,1001.15
2019-03-16T07:43:35.517Z,1001.15
2019-03-16T07:44:16.102Z,1001.14
2019-03-16T07:45:07.442Z,1001.2
2019-03-16T07:45:37.336Z,1001.16
2019-03-16T07:46:17.990Z,1001.17
2019-03-16T07:46:58.579Z,1001.16
2019-03-16T07:47:39.180Z,1001.19
2019-03-16T07:48:19.731Z,1001.16
2019-03-16T07:49:00.300Z,1001.2
2019-03-16T07:49:40.872Z,1001.24
2019-03-16T07:50:21.432Z,1001.28
2019-03-16T07:51:02.028Z,1001.32
2019-03-16T07:51:42.579Z,1001.27
2019-03-16T07:52:23.131Z,1001.27
2019-03-16T07:53:03.695Z,1001.32
2019-03-16T07:53:44.253Z,1001.34
2019-03-16T07:54:24.821Z,1001.28
2019-03-16T07:55:05.385Z,1001.32
2019-03-16T07:55:45.964Z,1001.33
2019-03-16T07:56:26.573Z,1001.31
2019-03-16T07:57:07.158Z,1001.27
2019-03-16T07:57:47.733Z,1001.32
2019-03-16T07:58:28.307Z,1001.33
2019-03-16T07:59:08.867Z,1001.31
2019-03-16T07:59:49.448Z,1001.34
2019-03-16T08:00:30.006Z,1001.35
2019-03-16T08:01:10.570Z,1001.37
2019-03-16T08:01:51.133Z,1001.23
2019-03-16T08:02:31.687Z,1001.3
2019-03-16T08:03:12.316Z,1001.31
2019-03-16T08:03:52.876Z,1001.32
2019-03-16T08:04:33.450Z,1001.41
2019-03-16T08:05:18.452Z,1001.31
2019-03-16T08:05:54.602Z,1001.33
2019-03-16T08:06:35.158Z,1001.27
2019-03-16T08:07:15.852Z,1001.36
2019-03-16T08:07:56.726Z,1001.34
2019-03-16T08:08:37.303Z,1001.3
2019-03-16T08:09:17.886Z,1001.36
2019-03-16T08:09:58.442Z,1001.37
2019-03-16T08:10:39.024Z,1001.42
2019-03-16T08:11:19.574Z,1001.4
2019-03-16T08:12:00.274Z,1001.37
2019-03-16T08:12:40.837Z,1001.41
2019-03-16T08:13:21.438Z,1001.38
2019-03-16T08:14:01.991Z,1001.4
2019-03-16T08:14:42.873Z,1001.36
2019-03-16T08:15:23.921Z,1001.37
2019-03-16T08:16:04.515Z,1001.36
2019-03-16T08:16:45.109Z,1001.42
2019-03-16T08:17:25.672Z,1001.45
2019-03-16T08:18:07.770Z,1001.34
2019-03-16T08:18:46.809Z,1001.36
2019-03-16T08:19:27.369Z,1001.42
2019-03-16T08:20:07.937Z,1001.41
2019-03-16T08:20:48.513Z,1001.42
2019-03-16T08:21:29.073Z,1001.45
2019-03-16T08:22:10.026Z,1001.51
2019-03-16T08:22:50.614Z,1001.46
2019-03-16T08:23:31.179Z,1001.44